Time;durP1;ratioP1;P1;durP2;ratioP2;P2;SDS_P1;SDS_P2;PMS_P1;PMS_P2;Temp;Humidity;BMP_temperature;BMP_pressure;BME280_temperature;BME280_humidity;BME280_pressure;Samples;Min_cycle;Max_cycle;Signal;HPM_P1;HPM_P2
2022/01/11 00:02:16;;;;;;;17.33;12.60;;;3.40;99.90;;;;;;5011792;28;20216;-76
2022/01/11 00:04:41;;;;;;;21.92;13.88;;;3.40;99.90;;;;;;5012965;28;20174;-76
2022/01/11 00:07:11;;;;;;;19.40;14.20;;;3.40;99.90;;;;;;5012703;28;20653;-76
2022/01/11 00:09:42;;;;;;;19.58;13.13;;;3.30;99.90;;;;;;5012477;28;20206;-76
2022/01/11 00:12:10;;;;;;;24.48;17.55;;;3.30;99.90;;;;;;5012713;28;20653;-76
2022/01/11 00:14:36;;;;;;;17.30;12.73;;;3.30;99.90;;;;;;5011841;28;20166;-76
2022/01/11 00:17:03;;;;;;;16.73;11.05;;;3.30;99.90;;;;;;5012925;28;20654;-76
2022/01/11 00:19:32;;;;;;;16.90;11.02;;;3.30;99.90;;;;;;5019394;28;20249;-76
2022/01/11 00:22:00;;;;;;;17.63;13.15;;;3.30;99.90;;;;;;5019742;28;20174;-76
2022/01/11 00:24:30;;;;;;;32.08;14.85;;;3.30;99.90;;;;;;5015452;28;20170;-76
2022/01/11 00:26:57;;;;;;;23.05;15.23;;;3.30;99.90;;;;;;5017839;28;20671;-76
2022/01/11 00:29:23;;;;;;;17.15;11.65;;;3.30;99.90;;;;;;5019060;28;20206;-76
2022/01/11 00:31:49;;;;;;;17.10;11.93;;;3.30;99.90;;;;;;5018858;28;20171;-76
2022/01/11 00:34:18;;;;;;;21.10;15.20;;;3.30;99.90;;;;;;5012714;28;20604;-76
2022/01/11 00:36:44;;;;;;;20.67;14.63;;;3.20;99.90;;;;;;5012409;28;20181;-76
2022/01/11 00:39:11;;;;;;;20.50;13.20;;;3.20;99.90;;;;;;5010885;28;20182;-76
2022/01/11 00:41:41;;;;;;;21.20;12.52;;;3.30;99.90;;;;;;5022638;28;20205;-76
2022/01/11 00:44:09;;;;;;;17.63;13.25;;;3.20;99.90;;;;;;5015599;28;20254;-76
2022/01/11 00:46:34;;;;;;;20.33;13.95;;;3.30;99.90;;;;;;5030710;28;20177;-75
2022/01/11 00:49:00;;;;;;;20.90;13.73;;;3.30;99.90;;;;;;5031250;28;20620;-76
2022/01/11 00:51:26;;;;;;;22.60;14.37;;;3.30;99.90;;;;;;5038114;28;20255;-76
2022/01/11 00:53:53;;;;;;;27.77;17.08;;;3.30;99.90;;;;;;5030451;28;20512;-76
2022/01/11 00:56:19;;;;;;;18.45;12.77;;;3.30;99.90;;;;;;5030308;28;20166;-76
2022/01/11 00:58:47;;;;;;;19.73;16.10;;;3.30;99.90;;;;;;5031514;28;20182;-76
2022/01/11 01:01:13;;;;;;;20.60;13.93;;;3.30;99.90;;;;;;5031056;28;20169;-76
2022/01/11 01:03:39;;;;;;;16.83;11.93;;;3.30;99.90;;;;;;5030228;28;20231;-76
2022/01/11 01:06:05;;;;;;;15.60;12.38;;;3.30;99.90;;;;;;5031321;28;20260;-76
2022/01/11 01:08:32;;;;;;;23.35;16.35;;;3.40;99.90;;;;;;5032130;28;20194;-76
2022/01/11 01:10:58;;;;;;;21.90;13.50;;;3.40;99.90;;;;;;5045091;28;20297;-76
2022/01/11 01:13:29;;;;;;;25.40;14.55;;;3.40;99.90;;;;;;5045783;28;20173;-76
2022/01/11 01:15:58;;;;;;;21.90;16.50;;;3.40;99.90;;;;;;5054139;28;20199;-76
2022/01/11 01:18:40;;;;;;;18.48;13.57;;;3.50;99.90;;;;;;5054029;28;20192;-76
2022/01/11 01:21:06;;;;;;;21.40;13.30;;;3.40;99.90;;;;;;5053625;28;20168;-76
2022/01/11 01:23:33;;;;;;;23.08;15.02;;;3.50;99.90;;;;;;5054068;28;20177;-76
2022/01/11 01:25:59;;;;;;;22.13;15.23;;;3.50;99.90;;;;;;5053919;28;20177;-76
2022/01/11 01:28:25;;;;;;;22.95;15.48;;;3.60;99.90;;;;;;5053320;28;20243;-76
2022/01/11 01:30:52;;;;;;;19.70;15.15;;;3.50;99.90;;;;;;5053439;28;20197;-76
2022/01/11 01:33:19;;;;;;;22.63;15.27;;;3.50;99.90;;;;;;5055170;28;20528;-76
2022/01/11 01:35:50;;;;;;;24.50;14.38;;;3.50;99.90;;;;;;5055154;28;20508;-76
2022/01/11 01:38:23;;;;;;;24.88;15.32;;;3.50;99.90;;;;;;5054757;28;20193;-74
2022/01/11 01:40:50;;;;;;;19.48;14.13;;;3.40;99.90;;;;;;5054395;28;20215;-74
2022/01/11 01:43:16;;;;;;;24.08;16.10;;;3.40;99.90;;;;;;5054627;28;20288;-76
2022/01/11 01:45:46;;;;;;;19.10;14.13;;;3.40;99.90;;;;;;5053619;28;20169;-76
2022/01/11 01:48:12;;;;;;;22.67;15.50;;;3.40;99.90;;;;;;5054645;28;20192;-76
2022/01/11 01:50:38;;;;;;;22.15;14.57;;;3.40;99.90;;;;;;5053200;28;20196;-76
2022/01/11 01:53:07;;;;;;;20.40;13.40;;;3.40;99.90;;;;;;5053418;28;20173;-76
2022/01/11 01:55:33;;;;;;;20.15;13.52;;;3.30;99.90;;;;;;5053186;28;20581;-76
2022/01/11 01:57:59;;;;;;;21.05;14.98;;;3.30;99.90;;;;;;5036448;28;20284;-76
2022/01/11 02:00:28;;;;;;;23.03;16.90;;;3.30;99.90;;;;;;5052760;28;20260;-76
2022/01/11 02:03:04;;;;;;;20.27;13.88;;;3.30;99.90;;;;;;5053406;28;20571;-76
2022/01/11 02:05:30;;;;;;;22.23;15.85;;;3.30;99.90;;;;;;5053339;28;20548;-76
2022/01/11 02:07:56;;;;;;;20.47;13.67;;;3.30;99.90;;;;;;5052993;28;20197;-76
2022/01/11 02:10:22;;;;;;;22.70;14.83;;;3.30;99.90;;;;;;5052641;28;20240;-76
2022/01/11 02:12:48;;;;;;;20.60;14.47;;;3.30;99.90;;;;;;5053087;28;20579;-76
2022/01/11 02:15:14;;;;;;;20.52;13.93;;;3.30;99.90;;;;;;5053553;28;20166;-76
2022/01/11 02:17:41;;;;;;;25.98;15.57;;;3.30;99.90;;;;;;5052965;28;20161;-76
2022/01/11 02:20:14;;;;;;;22.42;13.73;;;3.40;99.90;;;;;;5052278;28;20535;-76
2022/01/11 02:22:40;;;;;;;17.52;11.60;;;3.40;99.90;;;;;;5053307;28;20547;-76
2022/01/11 02:25:07;;;;;;;18.15;12.55;;;3.40;99.90;;;;;;5052930;28;20192;-76
2022/01/11 02:27:33;;;;;;;18.20;12.85;;;3.40;99.90;;;;;;5052687;28;20204;-76
2022/01/11 02:29:59;;;;;;;16.40;12.37;;;3.50;99.90;;;;;;5052514;28;20435;-75
2022/01/11 02:32:25;;;;;;;16.70;13.20;;;3.50;99.90;;;;;;5036041;28;20179;-75
2022/01/11 02:34:52;;;;;;;17.92;13.05;;;3.60;99.90;;;;;;5035811;28;20169;-75
2022/01/11 02:37:23;;;;;;;19.65;13.40;;;3.60;99.90;;;;;;5052496;28;20629;-74
2022/01/11 02:39:58;;;;;;;16.60;12.23;;;3.60;99.90;;;;;;5051880;28;20549;-75
2022/01/11 02:42:29;;;;;;;24.38;14.55;;;3.50;99.90;;;;;;5052486;28;20541;-75
2022/01/11 02:44:55;;;;;;;16.80;13.10;;;3.50;99.90;;;;;;5052354;28;20169;-75
2022/01/11 02:47:22;;;;;;;20.40;13.75;;;3.50;99.90;;;;;;5035510;28;20230;-75
2022/01/11 02:49:51;;;;;;;18.30;13.45;;;3.40;99.90;;;;;;5034739;28;20331;-75
2022/01/11 02:52:21;;;;;;;31.23;15.95;;;3.30;99.90;;;;;;5051984;28;20165;-75
2022/01/11 02:54:53;;;;;;;19.40;12.48;;;3.20;99.90;;;;;;5035464;28;20223;-75
2022/01/11 02:57:20;;;;;;;20.25;14.00;;;3.20;99.90;;;;;;5052143;28;20231;-75
2022/01/11 02:59:48;;;;;;;20.88;13.65;;;3.10;99.90;;;;;;5051554;28;20795;-75
2022/01/11 03:02:17;;;;;;;18.05;13.25;;;3.00;99.90;;;;;;5052073;28;20165;-75
2022/01/11 03:04:45;;;;;;;17.15;12.55;;;3.00;99.90;;;;;;5051960;28;20165;-75
2022/01/11 03:07:20;;;;;;;21.70;15.40;;;3.10;99.90;;;;;;5051820;28;20173;-75
2022/01/11 03:10:09;;;;;;;17.58;12.02;;;3.10;99.90;;;;;;5034525;28;20703;-75
2022/01/11 03:12:49;;;;;;;14.27;10.20;;;3.10;99.90;;;;;;5051881;28;20169;-75
2022/01/11 03:15:15;;;;;;;19.40;13.40;;;3.10;99.90;;;;;;5051799;28;20214;-75
2022/01/11 03:17:43;;;;;;;19.38;14.65;;;3.00;99.90;;;;;;5051615;28;20568;-75
2022/01/11 03:20:10;;;;;;;16.77;11.87;;;3.00;99.90;;;;;;5051572;28;20157;-75
2022/01/11 03:22:36;;;;;;;15.43;10.82;;;3.00;99.90;;;;;;5051737;28;20563;-75
2022/01/11 03:25:06;;;;;;;20.25;13.52;;;3.00;99.90;;;;;;5051859;28;20251;-74
2022/01/11 03:27:33;;;;;;;21.52;12.73;;;3.00;99.90;;;;;;5052737;28;20169;-74
2022/01/11 03:30:00;;;;;;;20.23;13.00;;;3.00;99.90;;;;;;5050779;28;20584;-74
2022/01/11 03:32:27;;;;;;;19.08;12.32;;;3.00;99.90;;;;;;5051387;28;20173;-74
2022/01/11 03:34:53;;;;;;;17.23;12.63;;;3.00;99.90;;;;;;5052747;28;20211;-74
2022/01/11 03:37:20;;;;;;;21.33;14.83;;;3.00;99.90;;;;;;5051179;28;20176;-75
2022/01/11 03:39:47;;;;;;;18.25;12.80;;;3.00;99.90;;;;;;5050841;28;20193;-75
2022/01/11 03:42:14;;;;;;;19.25;13.43;;;3.00;99.90;;;;;;5051246;28;20572;-75
2022/01/11 03:44:40;;;;;;;20.05;11.88;;;3.10;99.90;;;;;;5051127;28;20290;-75
2022/01/11 03:47:07;;;;;;;16.13;12.40;;;3.10;99.90;;;;;;5051209;28;20177;-75
2022/01/11 03:49:33;;;;;;;20.38;14.82;;;3.20;99.90;;;;;;5050983;28;20235;-75
2022/01/11 03:52:01;;;;;;;23.63;14.27;;;3.10;99.90;;;;;;5050932;28;20196;-75
2022/01/11 03:54:30;;;;;;;18.60;14.52;;;3.20;99.90;;;;;;5050796;28;20586;-74
2022/01/11 03:57:08;;;;;;;17.73;13.52;;;3.20;99.90;;;;;;5051105;28;20567;-74
2022/01/11 03:59:38;;;;;;;18.45;13.50;;;3.20;99.90;;;;;;5050638;28;20253;-75
2022/01/11 04:02:05;;;;;;;21.08;14.55;;;3.20;99.90;;;;;;5034318;28;20295;-74
2022/01/11 04:04:31;;;;;;;19.60;12.37;;;3.20;99.90;;;;;;5050802;28;20730;-76
2022/01/11 04:06:57;;;;;;;19.47;12.63;;;3.20;99.90;;;;;;5052051;28;20932;-75
2022/01/11 04:09:24;;;;;;;17.42;12.15;;;3.30;99.90;;;;;;5050666;28;20278;-75
2022/01/11 04:11:50;;;;;;;17.02;12.57;;;3.40;99.90;;;;;;5033739;28;20213;-75
2022/01/11 04:14:16;;;;;;;21.53;15.03;;;3.40;99.90;;;;;;5050725;28;20165;-74
2022/01/11 04:16:42;;;;;;;15.60;10.90;;;3.40;99.90;;;;;;5050665;28;21169;-74
2022/01/11 04:19:11;;;;;;;18.40;13.23;;;3.40;99.90;;;;;;5050467;28;20196;-75
2022/01/11 04:21:37;;;;;;;18.92;12.55;;;3.40;99.90;;;;;;5050134;28;20176;-75
2022/01/11 04:24:03;;;;;;;17.77;12.67;;;3.30;99.90;;;;;;5033921;28;20575;-76
2022/01/11 04:26:29;;;;;;;18.38;11.82;;;3.30;99.90;;;;;;5050483;28;20554;-76
2022/01/11 04:29:01;;;;;;;18.13;12.77;;;3.30;99.90;;;;;;5050316;28;20255;-76
2022/01/11 04:31:27;;;;;;;16.58;11.63;;;3.20;99.90;;;;;;5049909;28;20207;-76
2022/01/11 04:33:53;;;;;;;15.85;11.05;;;3.20;99.90;;;;;;5050750;28;20187;-76
2022/01/11 04:36:19;;;;;;;16.53;11.80;;;3.20;99.90;;;;;;5050870;28;20169;-76
2022/01/11 04:38:45;;;;;;;18.00;12.20;;;3.20;99.90;;;;;;5050672;28;20185;-76
2022/01/11 04:41:14;;;;;;;15.52;11.10;;;3.10;99.90;;;;;;5050284;28;20583;-75
2022/01/11 04:43:44;;;;;;;19.52;13.05;;;3.10;99.90;;;;;;5050610;28;20177;-75
2022/01/11 04:46:11;;;;;;;18.75;13.02;;;3.10;99.90;;;;;;5050509;28;20238;-75
2022/01/11 04:48:37;;;;;;;18.95;12.80;;;3.00;99.90;;;;;;5050444;28;20271;-75
2022/01/11 04:51:05;;;;;;;25.92;16.70;;;3.00;99.90;;;;;;5049785;28;20197;-75
2022/01/11 04:53:31;;;;;;;20.52;14.52;;;3.00;99.90;;;;;;5050468;28;20173;-75
2022/01/11 04:55:57;;;;;;;21.88;15.23;;;3.00;99.90;;;;;;5050452;28;20176;-75
2022/01/11 04:58:23;;;;;;;23.92;16.48;;;3.00;99.90;;;;;;5051458;28;20196;-75
2022/01/11 05:00:49;;;;;;;19.97;12.47;;;2.90;99.90;;;;;;5051559;28;20169;-75
2022/01/11 05:03:18;;;;;;;24.35;15.43;;;2.90;99.90;;;;;;5050169;28;20572;-75
2022/01/11 05:05:48;;;;;;;23.50;14.50;;;2.90;99.90;;;;;;5050122;28;20727;-75
2022/01/11 05:08:14;;;;;;;17.10;12.10;;;2.90;99.90;;;;;;5033435;28;20239;-75
2022/01/11 05:10:42;;;;;;;23.95;14.27;;;2.90;99.90;;;;;;5049627;28;20201;-75
2022/01/11 05:13:13;;;;;;;18.92;12.77;;;2.90;99.90;;;;;;5033521;28;20638;-75
2022/01/11 05:15:40;;;;;;;27.90;16.65;;;2.90;99.90;;;;;;5050045;28;20176;-75
2022/01/11 05:18:07;;;;;;;25.65;14.85;;;2.90;99.90;;;;;;5049927;28;20185;-75
2022/01/11 05:20:35;;;;;;;17.40;12.25;;;2.90;99.90;;;;;;5049620;28;20177;-75
2022/01/11 05:23:01;;;;;;;18.55;11.60;;;2.90;99.90;;;;;;5051248;28;20661;-75
2022/01/11 05:25:27;;;;;;;16.90;12.17;;;2.90;99.90;;;;;;5049965;28;20180;-75
2022/01/11 05:27:53;;;;;;;12.27;8.80;;;2.90;99.90;;;;;;5033013;28;21163;-75
2022/01/11 05:30:20;;;;;;;23.17;14.90;;;2.90;99.90;;;;;;5049517;28;20595;-75
2022/01/11 05:32:48;;;;;;;19.88;13.90;;;2.90;99.90;;;;;;5033523;28;20165;-75
2022/01/11 05:35:16;;;;;;;16.63;10.75;;;2.90;99.90;;;;;;5050954;28;20664;-75
2022/01/11 05:37:42;;;;;;;20.92;13.93;;;2.90;99.90;;;;;;5049596;28;20701;-75
2022/01/11 05:40:10;;;;;;;21.45;14.00;;;2.90;99.90;;;;;;5049490;28;20169;-75
2022/01/11 05:42:36;;;;;;;16.60;11.25;;;2.90;99.90;;;;;;5049756;28;20222;-75
2022/01/11 05:45:04;;;;;;;16.27;10.52;;;2.90;99.90;;;;;;5049455;28;20165;-75
2022/01/11 05:47:32;;;;;;;21.05;13.23;;;2.90;99.90;;;;;;5049524;28;20177;-75
2022/01/11 05:50:00;;;;;;;21.60;14.82;;;2.90;99.90;;;;;;5049218;28;20197;-75
2022/01/11 05:52:26;;;;;;;20.70;15.52;;;2.90;99.90;;;;;;5049565;28;20207;-75
2022/01/11 05:54:56;;;;;;;19.80;14.05;;;2.80;99.90;;;;;;5049524;28;20692;-75
2022/01/11 05:57:24;;;;;;;19.20;13.68;;;2.80;99.90;;;;;;5052530;28;20161;-75
2022/01/11 05:59:50;;;;;;;21.40;14.20;;;2.80;99.90;;;;;;5052663;28;20215;-75
2022/01/11 06:02:16;;;;;;;19.90;12.30;;;2.80;99.90;;;;;;5053098;28;20586;-75
2022/01/11 06:04:43;;;;;;;21.52;13.05;;;2.80;99.90;;;;;;5053117;28;20936;-74
2022/01/11 06:07:10;;;;;;;17.42;12.27;;;2.80;99.90;;;;;;5052914;28;20181;-75
2022/01/11 06:09:37;;;;;;;18.55;12.52;;;2.90;99.90;;;;;;5035808;28;20197;-75
2022/01/11 06:12:03;;;;;;;20.97;14.10;;;2.90;99.90;;;;;;5052945;28;20510;-75
2022/01/11 06:14:29;;;;;;;17.10;10.05;;;2.90;99.90;;;;;;5052790;28;20566;-74
2022/01/11 06:16:55;;;;;;;19.20;13.00;;;2.90;99.90;;;;;;5052756;28;20169;-74
2022/01/11 06:19:21;;;;;;;18.73;13.00;;;3.00;99.90;;;;;;5047904;28;20246;-74
2022/01/11 06:22:02;;;;;;;24.13;14.95;;;3.00;99.90;;;;;;5047153;28;20587;-75
2022/01/11 06:24:28;;;;;;;17.05;12.23;;;2.80;99.90;;;;;;5042193;28;20178;-75
2022/01/11 06:26:55;;;;;;;28.30;18.10;;;2.70;99.90;;;;;;5040933;28;20782;-75
2022/01/11 06:29:21;;;;;;;21.27;14.03;;;2.60;99.90;;;;;;5045004;28;20293;-74
2022/01/11 06:31:46;;;;;;;23.57;13.67;;;2.60;99.90;;;;;;5045556;28;21158;-75
2022/01/11 06:34:12;;;;;;;21.37;13.80;;;2.50;99.90;;;;;;5043646;28;20272;-75
2022/01/11 06:36:39;;;;;;;20.67;12.73;;;2.40;99.90;;;;;;5052180;28;20165;-74
2022/01/11 06:39:04;;;;;;;21.43;14.77;;;2.40;99.90;;;;;;5048446;28;20190;-75
2022/01/11 06:41:35;;;;;;;18.35;11.32;;;2.40;99.90;;;;;;5040094;28;20169;-74
2022/01/11 06:44:05;;;;;;;27.35;15.07;;;2.40;99.90;;;;;;5023501;28;20188;-75
2022/01/11 06:46:31;;;;;;;17.08;10.25;;;2.50;99.90;;;;;;5050919;28;20173;-75
2022/01/11 06:49:01;;;;;;;22.17;14.95;;;2.50;99.90;;;;;;5052189;28;20192;-75
2022/01/11 06:51:27;;;;;;;23.05;13.07;;;2.60;99.90;;;;;;5051574;28;20259;-75
2022/01/11 06:53:53;;;;;;;21.10;12.23;;;2.60;99.90;;;;;;5052052;28;20179;-76
2022/01/11 06:56:20;;;;;;;25.23;12.70;;;2.60;99.90;;;;;;5053208;28;20645;-76
2022/01/11 06:58:49;;;;;;;17.70;12.18;;;2.70;99.90;;;;;;5053853;28;20998;-75
2022/01/11 07:01:15;;;;;;;29.45;15.70;;;2.70;99.90;;;;;;5051462;28;20165;-76
2022/01/11 07:03:42;;;;;;;25.10;16.40;;;2.70;99.90;;;;;;5035335;28;20169;-75
2022/01/11 07:06:28;;;;;;;22.65;13.88;;;2.70;99.90;;;;;;5052308;28;20755;-76
2022/01/11 07:08:54;;;;;;;23.07;13.80;;;2.60;99.90;;;;;;5051794;28;20192;-75
2022/01/11 07:11:23;;;;;;;28.20;12.73;;;2.60;99.90;;;;;;5030743;28;20624;-74
2022/01/11 07:13:51;;;;;;;18.35;11.75;;;2.60;99.90;;;;;;5031972;28;20158;-74
2022/01/11 07:16:17;;;;;;;21.40;13.70;;;2.70;99.90;;;;;;5031522;28;20166;-75
2022/01/11 07:18:44;;;;;;;21.05;15.32;;;2.60;99.90;;;;;;5031515;28;20209;-75
2022/01/11 07:21:11;;;;;;;23.17;15.23;;;2.60;99.90;;;;;;5014990;28;20277;-75
2022/01/11 07:23:37;;;;;;;22.45;12.75;;;2.50;99.90;;;;;;5031629;28;20162;-74
2022/01/11 07:26:03;;;;;;;22.17;13.67;;;2.60;99.90;;;;;;5032064;28;20181;-74
2022/01/11 07:28:31;;;;;;;21.17;13.35;;;2.60;99.90;;;;;;5030198;28;20204;-74
2022/01/11 07:30:58;;;;;;;25.35;12.93;;;2.60;99.90;;;;;;5030937;28;20205;-74
2022/01/11 07:33:25;;;;;;;16.13;10.95;;;2.50;99.90;;;;;;5016978;28;20177;-75
2022/01/11 07:35:53;;;;;;;23.10;13.80;;;2.50;99.90;;;;;;5032947;28;20638;-74
2022/01/11 07:38:19;;;;;;;26.13;14.52;;;2.50;99.90;;;;;;5031113;28;21000;-74
2022/01/11 07:40:45;;;;;;;28.07;16.30;;;2.40;99.90;;;;;;5030848;28;20182;-73
2022/01/11 07:43:28;;;;;;;22.25;13.65;;;2.30;99.90;;;;;;5030944;28;20646;-74
2022/01/11 07:45:59;;;;;;;23.27;13.90;;;2.20;99.90;;;;;;5028709;28;20182;-75
2022/01/11 07:48:32;;;;;;;22.15;13.50;;;2.20;99.90;;;;;;5015069;28;20696;-74
2022/01/11 07:51:04;;;;;;;29.00;16.77;;;2.20;99.90;;;;;;5005069;28;20698;-74
2022/01/11 07:53:32;;;;;;;24.17;16.83;;;2.20;99.90;;;;;;5027691;28;20185;-75
2022/01/11 07:56:04;;;;;;;21.80;15.18;;;2.20;99.90;;;;;;5016508;28;20177;-74
2022/01/11 07:58:32;;;;;;;21.60;14.40;;;2.20;99.90;;;;;;5030441;28;20190;-74
2022/01/11 08:00:58;;;;;;;19.23;13.82;;;2.20;99.90;;;;;;5010276;28;20253;-74
2022/01/11 08:03:31;;;;;;;20.95;14.85;;;2.30;99.90;;;;;;5022045;28;20180;-76
2022/01/11 08:06:05;;;;;;;22.27;14.20;;;2.20;99.90;;;;;;5030511;28;20178;-75
2022/01/11 08:08:33;;;;;;;21.27;14.73;;;2.20;99.90;;;;;;5030521;28;20197;-74
2022/01/11 08:11:00;;;;;;;22.80;15.30;;;2.10;99.90;;;;;;5030820;28;20206;-74
2022/01/11 08:13:28;;;;;;;22.90;15.20;;;2.10;99.90;;;;;;5030771;28;20599;-75
2022/01/11 08:15:54;;;;;;;20.83;13.95;;;2.10;99.90;;;;;;5030358;28;20587;-75
2022/01/11 08:18:19;;;;;;;24.27;13.88;;;2.10;99.90;;;;;;5030030;28;20213;-75
2022/01/11 08:20:47;;;;;;;24.73;15.52;;;2.00;99.90;;;;;;5029749;28;20177;-75
2022/01/11 08:23:16;;;;;;;19.23;12.02;;;2.00;99.90;;;;;;5030272;28;20642;-74
2022/01/11 08:25:42;;;;;;;17.40;11.52;;;2.00;99.90;;;;;;5030207;28;20212;-75
2022/01/11 08:28:09;;;;;;;21.23;13.93;;;2.10;99.90;;;;;;5029706;28;20201;-74
2022/01/11 08:30:36;;;;;;;28.08;15.90;;;2.10;99.90;;;;;;5030423;28;20209;-74
2022/01/11 08:33:06;;;;;;;24.70;15.23;;;2.10;99.90;;;;;;5032052;28;20165;-74
2022/01/11 08:35:32;;;;;;;40.72;19.27;;;2.00;99.90;;;;;;5032154;28;20170;-75
2022/01/11 08:37:59;;;;;;;23.67;14.98;;;2.00;99.90;;;;;;5030738;28;20201;-74
2022/01/11 08:40:26;;;;;;;25.73;15.80;;;2.00;99.90;;;;;;5013516;28;20182;-74
2022/01/11 08:42:58;;;;;;;19.65;14.13;;;2.00;99.90;;;;;;5030493;28;20616;-75
2022/01/11 08:45:25;;;;;;;23.88;14.07;;;2.00;99.90;;;;;;5030743;28;20248;-74
2022/01/11 08:47:58;;;;;;;22.70;13.60;;;2.10;99.90;;;;;;5032066;28;20174;-75
2022/01/11 08:50:24;;;;;;;25.85;16.70;;;2.10;99.90;;;;;;5030385;28;20224;-75
2022/01/11 08:52:51;;;;;;;26.80;18.55;;;2.20;99.90;;;;;;5027361;28;20182;-74
2022/01/11 08:55:21;;;;;;;25.05;15.35;;;2.20;99.90;;;;;;5011158;28;20190;-75
2022/01/11 08:57:49;;;;;;;19.13;13.00;;;2.20;99.90;;;;;;4994521;28;20247;-75
2022/01/11 09:00:18;;;;;;;18.92;13.48;;;2.20;99.90;;;;;;4997720;28;20182;-74
2022/01/11 09:02:54;;;;;;;21.90;14.60;;;2.20;99.90;;;;;;5013531;28;20172;-73
2022/01/11 09:05:22;;;;;;;19.55;12.10;;;2.20;99.90;;;;;;5030242;28;20177;-73
2022/01/11 09:07:50;;;;;;;20.65;14.38;;;2.30;99.90;;;;;;5030034;28;20177;-74
2022/01/11 09:10:16;;;;;;;29.45;16.58;;;2.40;99.90;;;;;;5030465;28;20276;-74
2022/01/11 09:12:45;;;;;;;17.15;12.07;;;2.30;99.90;;;;;;5030307;28;20173;-74
2022/01/11 09:15:14;;;;;;;21.42;14.30;;;2.30;99.90;;;;;;5030340;28;20174;-74
2022/01/11 09:17:41;;;;;;;20.63;13.45;;;2.40;99.90;;;;;;5029985;28;20162;-73
2022/01/11 09:20:09;;;;;;;21.95;14.63;;;2.40;99.90;;;;;;5029734;28;20170;-74
2022/01/11 09:22:36;;;;;;;18.63;14.32;;;2.40;99.90;;;;;;5030010;28;20170;-74
2022/01/11 09:25:03;;;;;;;18.70;12.93;;;2.40;99.90;;;;;;5013861;28;20645;-74
2022/01/11 09:27:35;;;;;;;16.75;10.43;;;2.50;99.90;;;;;;5029747;28;20192;-75
2022/01/11 09:30:08;;;;;;;18.95;12.48;;;2.60;99.90;;;;;;5030430;28;20247;-74
2022/01/11 09:32:38;;;;;;;22.42;14.70;;;2.70;99.90;;;;;;5017899;28;20210;-74
2022/01/11 09:35:07;;;;;;;19.42;13.00;;;2.70;99.90;;;;;;5001832;28;20209;-74
2022/01/11 09:37:34;;;;;;;16.08;11.50;;;2.80;99.90;;;;;;5035032;28;20170;-74
2022/01/11 09:40:01;;;;;;;22.90;14.75;;;2.90;99.90;;;;;;5034449;28;20190;-75
2022/01/11 09:42:28;;;;;;;17.95;11.77;;;3.00;99.90;;;;;;5034341;28;20188;-74
2022/01/11 09:44:58;;;;;;;22.23;15.73;;;3.10;99.90;;;;;;5034722;28;20184;-75
2022/01/11 09:47:25;;;;;;;18.98;13.15;;;3.20;99.90;;;;;;5019364;28;20184;-74
2022/01/11 09:49:53;;;;;;;19.33;13.13;;;3.20;99.90;;;;;;5035282;28;20273;-74
2022/01/11 09:52:20;;;;;;;21.17;13.32;;;3.40;99.90;;;;;;5037341;28;20181;-74
2022/01/11 09:54:48;;;;;;;16.55;10.90;;;3.50;99.90;;;;;;5053460;28;20173;-74
2022/01/11 09:57:16;;;;;;;20.25;15.23;;;3.60;99.90;;;;;;5036673;28;20529;-74
2022/01/11 09:59:43;;;;;;;23.00;15.35;;;3.80;99.90;;;;;;5052975;28;20188;-74
2022/01/11 10:02:46;;;;;;;21.05;12.07;;;3.80;99.90;;;;;;5054772;28;20248;-74
2022/01/11 10:05:27;;;;;;;17.30;12.18;;;3.90;99.90;;;;;;5053627;28;20530;-73
2022/01/11 10:07:55;;;;;;;17.05;11.75;;;3.90;99.90;;;;;;5053020;28;20165;-73
2022/01/11 10:10:26;;;;;;;17.63;12.75;;;3.90;99.90;;;;;;5052491;28;20301;-74
2022/01/11 10:13:03;;;;;;;20.13;13.20;;;3.90;99.90;;;;;;5037462;28;20165;-74
2022/01/11 10:15:33;;;;;;;21.13;13.40;;;4.00;99.90;;;;;;5041041;28;20169;-74
2022/01/11 10:18:03;;;;;;;20.15;13.75;;;4.10;99.90;;;;;;5033977;28;20190;-74
2022/01/11 10:20:35;;;;;;;18.73;13.68;;;4.10;99.90;;;;;;5033678;28;20296;-74
2022/01/11 10:23:13;;;;;;;22.83;14.68;;;4.10;99.90;;;;;;5033429;28;20192;-75
2022/01/11 10:25:47;;;;;;;19.23;14.95;;;4.20;99.90;;;;;;5033266;28;20174;-74
2022/01/11 10:28:14;;;;;;;17.83;14.40;;;4.20;99.90;;;;;;5032571;28;20201;-73
2022/01/11 10:30:45;;;;;;;17.98;13.88;;;4.30;99.90;;;;;;5032187;28;20259;-74
2022/01/11 10:33:11;;;;;;;20.40;13.67;;;4.30;99.90;;;;;;5032914;28;20161;-74
2022/01/11 10:35:42;;;;;;;21.75;15.60;;;4.40;99.90;;;;;;5016049;28;20569;-74
2022/01/11 10:38:27;;;;;;;14.65;11.93;;;4.40;99.90;;;;;;5032625;28;20561;-74
2022/01/11 10:40:55;;;;;;;18.17;13.82;;;4.50;99.90;;;;;;5032529;28;20686;-74
2022/01/11 10:43:23;;;;;;;19.40;14.25;;;4.60;99.90;;;;;;5031694;28;20173;-74
2022/01/11 10:45:58;;;;;;;19.02;13.13;;;4.70;99.90;;;;;;5032200;28;20169;-74
2022/01/11 10:48:28;;;;;;;21.38;15.90;;;4.80;99.90;;;;;;5015938;28;20197;-74
2022/01/11 10:51:01;;;;;;;19.17;14.10;;;4.70;99.90;;;;;;5031830;28;20205;-75
2022/01/11 10:53:39;;;;;;;19.00;14.02;;;4.80;99.90;;;;;;5032026;28;20165;-74
2022/01/11 10:56:08;;;;;;;18.35;13.82;;;4.90;99.90;;;;;;5031979;28;20182;-74
2022/01/11 10:58:40;;;;;;;18.35;13.55;;;4.90;99.90;;;;;;5032507;28;20182;-75
2022/01/11 11:01:11;;;;;;;16.85;13.25;;;4.90;99.90;;;;;;5031618;28;20177;-74
2022/01/11 11:03:39;;;;;;;18.95;13.57;;;5.00;99.90;;;;;;5031941;28;20507;-74
2022/01/11 11:06:10;;;;;;;17.17;13.52;;;5.00;99.90;;;;;;5031746;28;20172;-74
2022/01/11 11:08:44;;;;;;;20.00;14.27;;;5.00;99.90;;;;;;5015660;28;20227;-74
2022/01/11 11:11:20;;;;;;;21.80;16.20;;;5.10;99.90;;;;;;5015263;28;20306;-74
2022/01/11 11:14:01;;;;;;;17.88;13.80;;;5.10;99.90;;;;;;5018340;28;20173;-75
2022/01/11 11:16:29;;;;;;;18.83;13.82;;;5.10;99.90;;;;;;5034537;28;20166;-75
2022/01/11 11:19:01;;;;;;;20.00;14.32;;;5.10;99.90;;;;;;5031968;28;20874;-74
2022/01/11 11:21:39;;;;;;;15.70;12.68;;;5.10;99.90;;;;;;5016753;28;20580;-74
2022/01/11 11:24:14;;;;;;;19.57;13.53;;;5.10;99.90;;;;;;5032863;28;20197;-74
2022/01/11 11:26:47;;;;;;;17.45;12.95;;;5.10;99.90;;;;;;5031130;28;20207;-75
2022/01/11 11:29:12;;;;;;;18.35;11.85;;;5.10;99.90;;;;;;5032494;28;20565;-74
2022/01/11 11:31:39;;;;;;;17.80;13.57;;;5.10;99.90;;;;;;5032121;28;20209;-74
2022/01/11 11:34:08;;;;;;;17.25;12.63;;;5.20;99.90;;;;;;5032505;28;20569;-74
2022/01/11 11:36:35;;;;;;;16.08;12.88;;;5.20;99.90;;;;;;5032194;28;20256;-74
2022/01/11 11:39:03;;;;;;;19.48;14.48;;;5.20;99.90;;;;;;5032599;28;20232;-74
2022/01/11 11:41:30;;;;;;;21.02;12.70;;;5.20;99.90;;;;;;5031404;28;20173;-74
2022/01/11 11:44:11;;;;;;;18.88;12.93;;;5.20;99.90;;;;;;5038278;28;20642;-75
2022/01/11 11:46:52;;;;;;;17.83;13.30;;;5.20;99.90;;;;;;5039222;28;20184;-75
2022/01/11 11:49:47;;;;;;;16.15;12.73;;;5.20;99.90;;;;;;5040043;28;20216;-75
2022/01/11 11:52:26;;;;;;;17.67;12.10;;;5.10;99.90;;;;;;5032591;28;20549;-74
2022/01/11 11:54:55;;;;;;;16.90;12.40;;;5.10;99.90;;;;;;5032399;28;20161;-75
2022/01/11 11:57:25;;;;;;;16.75;12.50;;;5.10;99.90;;;;;;5034082;28;20178;-75
2022/01/11 11:59:56;;;;;;;19.88;11.98;;;5.10;99.90;;;;;;5033495;28;20264;-75
2022/01/11 12:02:56;;;;;;;18.00;13.10;;;5.10;99.90;;;;;;5056154;28;20200;-75
2022/01/11 12:05:39;;;;;;;16.42;11.38;;;5.00;99.90;;;;;;5000033;28;20706;-75
2022/01/11 12:08:36;;;;;;;15.20;10.55;;;5.10;99.90;;;;;;5054443;28;20596;-75
2022/01/11 12:11:08;;;;;;;13.85;9.60;;;5.10;99.90;;;;;;5018794;28;20738;-75
2022/01/11 12:13:43;;;;;;;18.25;14.35;;;5.10;99.90;;;;;;5053432;28;20173;-74
2022/01/11 12:16:26;;;;;;;16.35;11.60;;;5.20;99.90;;;;;;5052679;28;20221;-74
2022/01/11 12:18:55;;;;;;;17.95;11.88;;;5.20;99.90;;;;;;5052426;28;20330;-75
2022/01/11 12:21:23;;;;;;;14.30;11.63;;;5.30;99.90;;;;;;5049845;28;20164;-75
2022/01/11 12:23:58;;;;;;;16.67;12.15;;;5.30;99.90;;;;;;5051876;28;20268;-75
2022/01/11 12:26:27;;;;;;;18.45;12.95;;;5.30;99.90;;;;;;5052906;28;20188;-74
2022/01/11 12:29:02;;;;;;;14.70;12.15;;;5.30;99.90;;;;;;5052246;28;20209;-75
2022/01/11 12:31:33;;;;;;;13.38;10.75;;;5.30;99.90;;;;;;5053018;28;20210;-74
2022/01/11 12:34:02;;;;;;;20.65;15.38;;;5.40;99.90;;;;;;5052106;28;20169;-74
2022/01/11 12:36:53;;;;;;;14.60;11.57;;;5.40;99.90;;;;;;5051459;28;20169;-75
2022/01/11 12:39:21;;;;;;;13.43;10.93;;;5.50;99.90;;;;;;5051440;28;20669;-75
2022/01/11 12:41:48;;;;;;;18.40;13.50;;;5.60;99.90;;;;;;5046615;28;20268;-75
2022/01/11 12:46:59;;;;;;;16.92;13.20;;;5.70;99.90;;;;;;5031544;28;20178;-74
2022/01/11 12:49:26;;;;;;;12.80;10.48;;;5.70;99.90;;;;;;5031549;28;20189;-76